sensor_id;sensor_type;location;lat;lon;timestamp;P1;durP1;ratioP1;P2;durP2;ratioP2
75603;SDS011;64187;51.010;13.792;2023-06-26T00:01:08;7.63;;;5.93;;
75603;SDS011;64187;51.010;13.792;2023-06-26T00:06:07;7.35;;;5.50;;
75603;SDS011;64187;51.010;13.792;2023-06-26T00:11:06;8.73;;;5.75;;
75603;SDS011;64187;51.010;13.792;2023-06-26T00:16:05;7.25;;;5.53;;
75603;SDS011;64187;51.010;13.792;2023-06-26T00:21:04;6.30;;;4.90;;
75603;SDS011;64187;51.010;13.792;2023-06-26T00:26:04;7.22;;;5.88;;
75603;SDS011;64187;51.010;13.792;2023-06-26T00:31:03;7.57;;;4.97;;
75603;SDS011;64187;51.010;13.792;2023-06-26T00:36:03;8.55;;;6.35;;
75603;SDS011;64187;51.010;13.792;2023-06-26T00:41:02;7.40;;;5.30;;
75603;SDS011;64187;51.010;13.792;2023-06-26T00:46:01;7.38;;;5.30;;
75603;SDS011;64187;51.010;13.792;2023-06-26T00:51:00;8.63;;;5.32;;
75603;SDS011;64187;51.010;13.792;2023-06-26T00:56:00;7.03;;;5.47;;
75603;SDS011;64187;51.010;13.792;2023-06-26T01:01:00;8.35;;;4.90;;
75603;SDS011;64187;51.010;13.792;2023-06-26T01:06:01;7.22;;;5.30;;
75603;SDS011;64187;51.010;13.792;2023-06-26T01:11:03;7.43;;;4.80;;
75603;SDS011;64187;51.010;13.792;2023-06-26T01:16:02;7.70;;;5.18;;
75603;SDS011;64187;51.010;13.792;2023-06-26T01:21:03;9.10;;;5.93;;
75603;SDS011;64187;51.010;13.792;2023-06-26T01:26:22;7.80;;;5.35;;
75603;SDS011;64187;51.010;13.792;2023-06-26T01:31:21;8.43;;;6.00;;
75603;SDS011;64187;51.010;13.792;2023-06-26T01:36:23;9.13;;;5.70;;
75603;SDS011;64187;51.010;13.792;2023-06-26T01:41:22;8.77;;;5.80;;
75603;SDS011;64187;51.010;13.792;2023-06-26T01:46:29;8.02;;;5.80;;
75603;SDS011;64187;51.010;13.792;2023-06-26T01:51:45;8.85;;;5.93;;
75603;SDS011;64187;51.010;13.792;2023-06-26T01:56:50;9.23;;;5.80;;
75603;SDS011;64187;51.010;13.792;2023-06-26T02:01:52;7.38;;;5.85;;
75603;SDS011;64187;51.010;13.792;2023-06-26T02:06:51;8.40;;;6.10;;
75603;SDS011;64187;51.010;13.792;2023-06-26T02:11:51;8.98;;;6.40;;
75603;SDS011;64187;51.010;13.792;2023-06-26T02:16:50;7.65;;;6.03;;
75603;SDS011;64187;51.010;13.792;2023-06-26T02:21:49;6.93;;;4.97;;
75603;SDS011;64187;51.010;13.792;2023-06-26T02:26:48;9.50;;;5.88;;
75603;SDS011;64187;51.010;13.792;2023-06-26T02:31:48;11.15;;;5.85;;
75603;SDS011;64187;51.010;13.792;2023-06-26T02:36:47;8.68;;;6.15;;
75603;SDS011;64187;51.010;13.792;2023-06-26T02:41:46;10.57;;;6.18;;
75603;SDS011;64187;51.010;13.792;2023-06-26T02:46:46;9.13;;;6.32;;
75603;SDS011;64187;51.010;13.792;2023-06-26T02:51:46;7.95;;;5.25;;
75603;SDS011;64187;51.010;13.792;2023-06-26T02:56:53;8.15;;;6.35;;
75603;SDS011;64187;51.010;13.792;2023-06-26T03:01:57;12.80;;;5.85;;
75603;SDS011;64187;51.010;13.792;2023-06-26T03:07:04;8.35;;;6.38;;
75603;SDS011;64187;51.010;13.792;2023-06-26T03:12:04;8.55;;;5.85;;
75603;SDS011;64187;51.010;13.792;2023-06-26T03:17:04;11.50;;;6.40;;
75603;SDS011;64187;51.010;13.792;2023-06-26T03:22:07;9.05;;;5.95;;
75603;SDS011;64187;51.010;13.792;2023-06-26T03:27:06;10.02;;;6.53;;
75603;SDS011;64187;51.010;13.792;2023-06-26T03:32:05;10.77;;;6.53;;
75603;SDS011;64187;51.010;13.792;2023-06-26T03:37:05;9.07;;;6.40;;
75603;SDS011;64187;51.010;13.792;2023-06-26T03:42:05;9.07;;;6.53;;
75603;SDS011;64187;51.010;13.792;2023-06-26T03:47:04;9.07;;;6.30;;
75603;SDS011;64187;51.010;13.792;2023-06-26T03:52:03;10.35;;;6.45;;
75603;SDS011;64187;51.010;13.792;2023-06-26T03:57:02;10.68;;;6.68;;
75603;SDS011;64187;51.010;13.792;2023-06-26T04:02:02;9.98;;;6.22;;
75603;SDS011;64187;51.010;13.792;2023-06-26T04:07:01;15.13;;;7.40;;
75603;SDS011;64187;51.010;13.792;2023-06-26T04:12:01;9.25;;;6.65;;
75603;SDS011;64187;51.010;13.792;2023-06-26T04:17:00;12.98;;;7.25;;
75603;SDS011;64187;51.010;13.792;2023-06-26T04:22:01;10.00;;;6.93;;
75603;SDS011;64187;51.010;13.792;2023-06-26T04:27:00;8.57;;;6.40;;
75603;SDS011;64187;51.010;13.792;2023-06-26T04:31:59;5.90;;;3.75;;
75603;SDS011;64187;51.010;13.792;2023-06-26T04:36:59;6.72;;;4.78;;
75603;SDS011;64187;51.010;13.792;2023-06-26T04:41:58;9.40;;;5.43;;
75603;SDS011;64187;51.010;13.792;2023-06-26T04:46:58;7.10;;;5.43;;
75603;SDS011;64187;51.010;13.792;2023-06-26T04:51:57;7.07;;;4.93;;
75603;SDS011;64187;51.010;13.792;2023-06-26T04:56:58;8.25;;;5.68;;
75603;SDS011;64187;51.010;13.792;2023-06-26T05:01:58;10.27;;;5.80;;
75603;SDS011;64187;51.010;13.792;2023-06-26T05:06:57;9.00;;;5.40;;
75603;SDS011;64187;51.010;13.792;2023-06-26T05:11:56;8.77;;;5.68;;
75603;SDS011;64187;51.010;13.792;2023-06-26T05:16:55;7.60;;;5.93;;
75603;SDS011;64187;51.010;13.792;2023-06-26T05:21:53;7.45;;;5.68;;
75603;SDS011;64187;51.010;13.792;2023-06-26T05:26:54;9.50;;;5.65;;
75603;SDS011;64187;51.010;13.792;2023-06-26T05:31:53;8.73;;;5.80;;
75603;SDS011;64187;51.010;13.792;2023-06-26T05:36:58;7.40;;;5.50;;
75603;SDS011;64187;51.010;13.792;2023-06-26T05:41:57;7.43;;;5.40;;
75603;SDS011;64187;51.010;13.792;2023-06-26T05:46:56;7.90;;;5.85;;
75603;SDS011;64187;51.010;13.792;2023-06-26T05:51:55;7.38;;;4.95;;
75603;SDS011;64187;51.010;13.792;2023-06-26T05:56:56;7.50;;;5.50;;
75603;SDS011;64187;51.010;13.792;2023-06-26T06:01:59;6.18;;;5.10;;
75603;SDS011;64187;51.010;13.792;2023-06-26T06:06:58;7.85;;;5.72;;
75603;SDS011;64187;51.010;13.792;2023-06-26T06:11:58;7.53;;;5.72;;
75603;SDS011;64187;51.010;13.792;2023-06-26T06:16:57;7.85;;;5.20;;
75603;SDS011;64187;51.010;13.792;2023-06-26T06:21:56;6.07;;;4.80;;
75603;SDS011;64187;51.010;13.792;2023-06-26T06:26:55;10.30;;;5.30;;
75603;SDS011;64187;51.010;13.792;2023-06-26T06:31:54;6.28;;;5.13;;
75603;SDS011;64187;51.010;13.792;2023-06-26T06:36:53;6.85;;;5.35;;
75603;SDS011;64187;51.010;13.792;2023-06-26T06:41:52;9.00;;;5.88;;
75603;SDS011;64187;51.010;13.792;2023-06-26T06:46:51;8.05;;;5.65;;
75603;SDS011;64187;51.010;13.792;2023-06-26T06:51:50;7.30;;;5.07;;
75603;SDS011;64187;51.010;13.792;2023-06-26T06:56:48;7.85;;;4.95;;
75603;SDS011;64187;51.010;13.792;2023-06-26T07:01:47;10.20;;;5.03;;
75603;SDS011;64187;51.010;13.792;2023-06-26T07:06:46;7.20;;;5.15;;
75603;SDS011;64187;51.010;13.792;2023-06-26T07:11:45;7.65;;;4.97;;
75603;SDS011;64187;51.010;13.792;2023-06-26T07:16:44;5.78;;;5.05;;
75603;SDS011;64187;51.010;13.792;2023-06-26T07:21:43;6.35;;;5.13;;
75603;SDS011;64187;51.010;13.792;2023-06-26T07:26:43;6.72;;;5.38;;
75603;SDS011;64187;51.010;13.792;2023-06-26T07:31:45;7.50;;;5.25;;
75603;SDS011;64187;51.010;13.792;2023-06-26T07:36:44;6.38;;;5.50;;
75603;SDS011;64187;51.010;13.792;2023-06-26T07:41:43;5.55;;;4.78;;
75603;SDS011;64187;51.010;13.792;2023-06-26T07:46:42;8.13;;;5.90;;
75603;SDS011;64187;51.010;13.792;2023-06-26T07:51:42;5.53;;;4.88;;
75603;SDS011;64187;51.010;13.792;2023-06-26T07:57:00;9.00;;;5.70;;
75603;SDS011;64187;51.010;13.792;2023-06-26T08:02:01;7.75;;;6.13;;
75603;SDS011;64187;51.010;13.792;2023-06-26T08:07:01;5.10;;;4.50;;
75603;SDS011;64187;51.010;13.792;2023-06-26T08:12:00;6.97;;;6.07;;
75603;SDS011;64187;51.010;13.792;2023-06-26T08:16:59;6.57;;;5.88;;
75603;SDS011;64187;51.010;13.792;2023-06-26T08:21:58;7.47;;;5.35;;
75603;SDS011;64187;51.010;13.792;2023-06-26T08:26:57;5.55;;;4.95;;
75603;SDS011;64187;51.010;13.792;2023-06-26T08:31:57;5.22;;;4.60;;
75603;SDS011;64187;51.010;13.792;2023-06-26T08:36:56;6.85;;;4.95;;
75603;SDS011;64187;51.010;13.792;2023-06-26T08:41:55;6.18;;;5.00;;
75603;SDS011;64187;51.010;13.792;2023-06-26T08:46:54;5.55;;;5.05;;
75603;SDS011;64187;51.010;13.792;2023-06-26T08:51:57;6.50;;;5.35;;
75603;SDS011;64187;51.010;13.792;2023-06-26T08:57:01;6.00;;;5.15;;
75603;SDS011;64187;51.010;13.792;2023-06-26T09:02:01;6.65;;;5.03;;
75603;SDS011;64187;51.010;13.792;2023-06-26T09:07:01;7.07;;;5.30;;
75603;SDS011;64187;51.010;13.792;2023-06-26T09:12:03;6.65;;;5.35;;
75603;SDS011;64187;51.010;13.792;2023-06-26T09:17:02;6.28;;;5.47;;
75603;SDS011;64187;51.010;13.792;2023-06-26T09:22:02;7.85;;;5.43;;
75603;SDS011;64187;51.010;13.792;2023-06-26T09:27:00;5.82;;;5.25;;
75603;SDS011;64187;51.010;13.792;2023-06-26T09:32:00;4.60;;;4.20;;
75603;SDS011;64187;51.010;13.792;2023-06-26T09:36:59;5.85;;;5.03;;
75603;SDS011;64187;51.010;13.792;2023-06-26T09:42:01;6.13;;;5.15;;
75603;SDS011;64187;51.010;13.792;2023-06-26T09:47:04;6.15;;;5.15;;
75603;SDS011;64187;51.010;13.792;2023-06-26T09:52:05;7.88;;;5.40;;
75603;SDS011;64187;51.010;13.792;2023-06-26T09:57:11;7.10;;;5.20;;
75603;SDS011;64187;51.010;13.792;2023-06-26T10:02:11;5.80;;;5.15;;
75603;SDS011;64187;51.010;13.792;2023-06-26T10:07:11;5.70;;;5.00;;
75603;SDS011;64187;51.010;13.792;2023-06-26T10:12:19;6.50;;;5.80;;
75603;SDS011;64187;51.010;13.792;2023-06-26T10:17:30;7.65;;;5.55;;
75603;SDS011;64187;51.010;13.792;2023-06-26T10:22:33;7.50;;;5.28;;
75603;SDS011;64187;51.010;13.792;2023-06-26T10:27:40;6.22;;;4.95;;
75603;SDS011;64187;51.010;13.792;2023-06-26T10:32:44;6.47;;;5.05;;
75603;SDS011;64187;51.010;13.792;2023-06-26T10:37:49;5.70;;;4.65;;
75603;SDS011;64187;51.010;13.792;2023-06-26T10:42:49;5.13;;;4.65;;
75603;SDS011;64187;51.010;13.792;2023-06-26T10:47:51;5.63;;;5.13;;
75603;SDS011;64187;51.010;13.792;2023-06-26T10:53:06;4.88;;;4.40;;
75603;SDS011;64187;51.010;13.792;2023-06-26T11:03:43;6.65;;;4.93;;
75603;SDS011;64187;51.010;13.792;2023-06-26T11:08:43;5.95;;;4.95;;
75603;SDS011;64187;51.010;13.792;2023-06-26T11:13:52;5.53;;;4.60;;
75603;SDS011;64187;51.010;13.792;2023-06-26T11:18:53;4.85;;;4.43;;
75603;SDS011;64187;51.010;13.792;2023-06-26T11:23:57;5.18;;;4.68;;
75603;SDS011;64187;51.010;13.792;2023-06-26T11:28:59;7.72;;;4.65;;
75603;SDS011;64187;51.010;13.792;2023-06-26T11:34:02;5.22;;;4.53;;
75603;SDS011;64187;51.010;13.792;2023-06-26T11:39:03;5.40;;;4.75;;
75603;SDS011;64187;51.010;13.792;2023-06-26T11:44:08;6.05;;;5.35;;
75603;SDS011;64187;51.010;13.792;2023-06-26T11:49:13;5.70;;;5.05;;
75603;SDS011;64187;51.010;13.792;2023-06-26T11:54:14;6.85;;;5.25;;
75603;SDS011;64187;51.010;13.792;2023-06-26T11:59:13;6.40;;;5.38;;
75603;SDS011;64187;51.010;13.792;2023-06-26T12:04:14;5.07;;;4.45;;
75603;SDS011;64187;51.010;13.792;2023-06-26T12:09:17;5.43;;;4.93;;
75603;SDS011;64187;51.010;13.792;2023-06-26T12:14:17;5.22;;;4.72;;
75603;SDS011;64187;51.010;13.792;2023-06-26T12:19:23;5.97;;;4.70;;
75603;SDS011;64187;51.010;13.792;2023-06-26T12:24:24;5.15;;;4.38;;
75603;SDS011;64187;51.010;13.792;2023-06-26T12:29:33;5.65;;;4.75;;
75603;SDS011;64187;51.010;13.792;2023-06-26T12:34:34;5.45;;;4.85;;
75603;SDS011;64187;51.010;13.792;2023-06-26T12:39:54;6.82;;;5.05;;
75603;SDS011;64187;51.010;13.792;2023-06-26T12:44:54;5.85;;;5.07;;
75603;SDS011;64187;51.010;13.792;2023-06-26T12:49:55;5.90;;;4.65;;
75603;SDS011;64187;51.010;13.792;2023-06-26T12:54:56;6.93;;;5.55;;
75603;SDS011;64187;51.010;13.792;2023-06-26T12:59:56;6.40;;;4.78;;
75603;SDS011;64187;51.010;13.792;2023-06-26T13:04:55;6.63;;;5.50;;
75603;SDS011;64187;51.010;13.792;2023-06-26T13:09:54;5.63;;;5.07;;
75603;SDS011;64187;51.010;13.792;2023-06-26T13:14:54;7.00;;;5.28;;
75603;SDS011;64187;51.010;13.792;2023-06-26T13:19:53;7.53;;;5.13;;
75603;SDS011;64187;51.010;13.792;2023-06-26T13:24:52;6.32;;;5.72;;
75603;SDS011;64187;51.010;13.792;2023-06-26T13:29:51;6.18;;;5.05;;
75603;SDS011;64187;51.010;13.792;2023-06-26T13:34:51;5.30;;;4.80;;
75603;SDS011;64187;51.010;13.792;2023-06-26T13:39:53;6.10;;;5.20;;
75603;SDS011;64187;51.010;13.792;2023-06-26T13:44:51;5.82;;;5.22;;
75603;SDS011;64187;51.010;13.792;2023-06-26T13:50:04;6.07;;;5.47;;
75603;SDS011;64187;51.010;13.792;2023-06-26T13:55:04;5.72;;;5.13;;
75603;SDS011;64187;51.010;13.792;2023-06-26T14:00:04;5.78;;;4.93;;
75603;SDS011;64187;51.010;13.792;2023-06-26T14:05:09;5.88;;;4.95;;
75603;SDS011;64187;51.010;13.792;2023-06-26T14:10:09;5.72;;;5.20;;
75603;SDS011;64187;51.010;13.792;2023-06-26T14:15:08;7.05;;;5.32;;
75603;SDS011;64187;51.010;13.792;2023-06-26T14:20:08;6.43;;;5.60;;
75603;SDS011;64187;51.010;13.792;2023-06-26T14:25:10;5.70;;;5.03;;
75603;SDS011;64187;51.010;13.792;2023-06-26T14:30:11;5.47;;;4.97;;
75603;SDS011;64187;51.010;13.792;2023-06-26T14:35:10;5.82;;;5.20;;
75603;SDS011;64187;51.010;13.792;2023-06-26T14:40:09;6.05;;;5.45;;
75603;SDS011;64187;51.010;13.792;2023-06-26T14:45:09;6.15;;;5.55;;
75603;SDS011;64187;51.010;13.792;2023-06-26T14:50:09;6.82;;;5.30;;
75603;SDS011;64187;51.010;13.792;2023-06-26T14:55:08;5.22;;;4.72;;
75603;SDS011;64187;51.010;13.792;2023-06-26T15:00:07;6.50;;;5.57;;
75603;SDS011;64187;51.010;13.792;2023-06-26T15:05:07;5.78;;;5.20;;
75603;SDS011;64187;51.010;13.792;2023-06-26T15:10:06;6.90;;;5.72;;
75603;SDS011;64187;51.010;13.792;2023-06-26T15:15:06;6.32;;;5.00;;
75603;SDS011;64187;51.010;13.792;2023-06-26T15:20:06;6.45;;;5.57;;
75603;SDS011;64187;51.010;13.792;2023-06-26T15:25:05;6.80;;;5.88;;
75603;SDS011;64187;51.010;13.792;2023-06-26T15:30:05;6.03;;;5.40;;
75603;SDS011;64187;51.010;13.792;2023-06-26T15:35:05;6.03;;;5.40;;
75603;SDS011;64187;51.010;13.792;2023-06-26T15:40:04;6.03;;;5.43;;
75603;SDS011;64187;51.010;13.792;2023-06-26T15:45:04;6.70;;;5.93;;
75603;SDS011;64187;51.010;13.792;2023-06-26T15:50:03;6.55;;;5.88;;
75603;SDS011;64187;51.010;13.792;2023-06-26T15:55:03;6.13;;;5.25;;
75603;SDS011;64187;51.010;13.792;2023-06-26T16:00:03;6.22;;;5.32;;
75603;SDS011;64187;51.010;13.792;2023-06-26T16:05:09;7.00;;;6.30;;
75603;SDS011;64187;51.010;13.792;2023-06-26T16:10:09;6.18;;;5.57;;
75603;SDS011;64187;51.010;13.792;2023-06-26T16:15:08;7.75;;;6.15;;
75603;SDS011;64187;51.010;13.792;2023-06-26T16:20:08;7.07;;;6.25;;
75603;SDS011;64187;51.010;13.792;2023-06-26T16:25:07;17.90;;;7.45;;
75603;SDS011;64187;51.010;13.792;2023-06-26T16:30:06;10.05;;;6.65;;
75603;SDS011;64187;51.010;13.792;2023-06-26T16:35:06;13.50;;;7.85;;
75603;SDS011;64187;51.010;13.792;2023-06-26T16:40:05;11.88;;;7.75;;
75603;SDS011;64187;51.010;13.792;2023-06-26T16:45:05;11.30;;;7.32;;
75603;SDS011;64187;51.010;13.792;2023-06-26T16:50:05;6.47;;;5.75;;
75603;SDS011;64187;51.010;13.792;2023-06-26T16:55:04;7.80;;;6.05;;
75603;SDS011;64187;51.010;13.792;2023-06-26T17:00:04;10.77;;;7.40;;
75603;SDS011;64187;51.010;13.792;2023-06-26T17:05:04;11.43;;;8.45;;
75603;SDS011;64187;51.010;13.792;2023-06-26T17:10:03;12.80;;;8.80;;
75603;SDS011;64187;51.010;13.792;2023-06-26T17:15:03;11.52;;;7.75;;
75603;SDS011;64187;51.010;13.792;2023-06-26T17:20:03;11.85;;;7.72;;
75603;SDS011;64187;51.010;13.792;2023-06-26T17:25:06;9.90;;;7.20;;
75603;SDS011;64187;51.010;13.792;2023-06-26T17:30:07;9.30;;;6.88;;
75603;SDS011;64187;51.010;13.792;2023-06-26T17:35:06;12.50;;;7.60;;
75603;SDS011;64187;51.010;13.792;2023-06-26T17:40:07;8.88;;;7.82;;
75603;SDS011;64187;51.010;13.792;2023-06-26T17:45:08;12.82;;;8.85;;
75603;SDS011;64187;51.010;13.792;2023-06-26T17:50:07;10.82;;;8.82;;
75603;SDS011;64187;51.010;13.792;2023-06-26T17:55:08;11.23;;;9.05;;
75603;SDS011;64187;51.010;13.792;2023-06-26T18:00:07;16.23;;;9.27;;
75603;SDS011;64187;51.010;13.792;2023-06-26T18:05:10;14.02;;;10.82;;
75603;SDS011;64187;51.010;13.792;2023-06-26T18:10:09;14.20;;;10.02;;
75603;SDS011;64187;51.010;13.792;2023-06-26T18:15:09;12.60;;;9.65;;
75603;SDS011;64187;51.010;13.792;2023-06-26T18:20:08;15.02;;;10.18;;
75603;SDS011;64187;51.010;13.792;2023-06-26T18:25:07;11.82;;;9.50;;
75603;SDS011;64187;51.010;13.792;2023-06-26T18:30:07;14.18;;;10.73;;
75603;SDS011;64187;51.010;13.792;2023-06-26T18:35:06;10.60;;;9.45;;
75603;SDS011;64187;51.010;13.792;2023-06-26T18:40:05;14.70;;;10.02;;
75603;SDS011;64187;51.010;13.792;2023-06-26T18:45:07;16.02;;;10.23;;
75603;SDS011;64187;51.010;13.792;2023-06-26T18:50:06;10.98;;;9.55;;
75603;SDS011;64187;51.010;13.792;2023-06-26T18:55:06;13.85;;;10.32;;
75603;SDS011;64187;51.010;13.792;2023-06-26T19:00:06;13.23;;;8.57;;
75603;SDS011;64187;51.010;13.792;2023-06-26T19:05:06;14.60;;;9.02;;
75603;SDS011;64187;51.010;13.792;2023-06-26T19:10:06;11.82;;;9.32;;
75603;SDS011;64187;51.010;13.792;2023-06-26T19:15:07;12.40;;;9.25;;
75603;SDS011;64187;51.010;13.792;2023-06-26T19:20:06;11.65;;;9.63;;
75603;SDS011;64187;51.010;13.792;2023-06-26T19:25:05;14.23;;;9.57;;
75603;SDS011;64187;51.010;13.792;2023-06-26T19:30:05;13.98;;;10.38;;
75603;SDS011;64187;51.010;13.792;2023-06-26T19:35:06;12.65;;;9.45;;
75603;SDS011;64187;51.010;13.792;2023-06-26T19:40:06;10.35;;;9.13;;
75603;SDS011;64187;51.010;13.792;2023-06-26T19:45:05;13.88;;;9.98;;
75603;SDS011;64187;51.010;13.792;2023-06-26T19:50:06;12.20;;;9.50;;
75603;SDS011;64187;51.010;13.792;2023-06-26T19:55:06;13.82;;;9.82;;
75603;SDS011;64187;51.010;13.792;2023-06-26T20:00:05;13.50;;;9.95;;
75603;SDS011;64187;51.010;13.792;2023-06-26T20:05:08;12.90;;;10.13;;
75603;SDS011;64187;51.010;13.792;2023-06-26T20:10:07;12.27;;;9.75;;
75603;SDS011;64187;51.010;13.792;2023-06-26T20:15:06;12.80;;;9.82;;
75603;SDS011;64187;51.010;13.792;2023-06-26T20:20:06;14.07;;;10.73;;
75603;SDS011;64187;51.010;13.792;2023-06-26T20:25:05;12.52;;;11.00;;
75603;SDS011;64187;51.010;13.792;2023-06-26T20:30:05;14.82;;;11.80;;
75603;SDS011;64187;51.010;13.792;2023-06-26T20:35:05;11.25;;;10.05;;
75603;SDS011;64187;51.010;13.792;2023-06-26T20:40:04;11.98;;;10.48;;
75603;SDS011;64187;51.010;13.792;2023-06-26T20:45:04;12.90;;;10.48;;
75603;SDS011;64187;51.010;13.792;2023-06-26T20:50:04;12.25;;;10.30;;
75603;SDS011;64187;51.010;13.792;2023-06-26T20:55:03;12.40;;;10.27;;
75603;SDS011;64187;51.010;13.792;2023-06-26T21:00:03;12.40;;;10.68;;
75603;SDS011;64187;51.010;13.792;2023-06-26T21:05:02;15.50;;;10.50;;
75603;SDS011;64187;51.010;13.792;2023-06-26T21:10:02;14.30;;;11.88;;
75603;SDS011;64187;51.010;13.792;2023-06-26T21:15:01;12.75;;;9.52;;
75603;SDS011;64187;51.010;13.792;2023-06-26T21:20:00;13.70;;;10.70;;
75603;SDS011;64187;51.010;13.792;2023-06-26T21:24:58;13.63;;;11.25;;
75603;SDS011;64187;51.010;13.792;2023-06-26T21:29:57;13.98;;;10.90;;
75603;SDS011;64187;51.010;13.792;2023-06-26T21:34:56;14.77;;;11.77;;
75603;SDS011;64187;51.010;13.792;2023-06-26T21:39:55;14.27;;;10.82;;
75603;SDS011;64187;51.010;13.792;2023-06-26T21:44:54;15.95;;;11.75;;
75603;SDS011;64187;51.010;13.792;2023-06-26T21:49:53;17.45;;;12.90;;
75603;SDS011;64187;51.010;13.792;2023-06-26T21:54:51;15.60;;;11.65;;
75603;SDS011;64187;51.010;13.792;2023-06-26T21:59:50;14.95;;;11.48;;
75603;SDS011;64187;51.010;13.792;2023-06-26T22:04:49;20.02;;;12.15;;
75603;SDS011;64187;51.010;13.792;2023-06-26T22:09:48;11.90;;;10.27;;
75603;SDS011;64187;51.010;13.792;2023-06-26T22:14:47;15.70;;;11.20;;
75603;SDS011;64187;51.010;13.792;2023-06-26T22:19:46;16.88;;;11.63;;
75603;SDS011;64187;51.010;13.792;2023-06-26T22:24:45;15.98;;;11.85;;
75603;SDS011;64187;51.010;13.792;2023-06-26T22:29:44;12.75;;;9.88;;
75603;SDS011;64187;51.010;13.792;2023-06-26T22:34:43;15.80;;;10.35;;
75603;SDS011;64187;51.010;13.792;2023-06-26T22:39:43;19.00;;;11.65;;
75603;SDS011;64187;51.010;13.792;2023-06-26T22:44:42;19.67;;;12.23;;
75603;SDS011;64187;51.010;13.792;2023-06-26T22:49:41;18.58;;;12.75;;
75603;SDS011;64187;51.010;13.792;2023-06-26T22:54:40;19.95;;;14.57;;
75603;SDS011;64187;51.010;13.792;2023-06-26T22:59:39;23.90;;;16.83;;
75603;SDS011;64187;51.010;13.792;2023-06-26T23:04:38;26.58;;;16.55;;
75603;SDS011;64187;51.010;13.792;2023-06-26T23:09:37;24.52;;;17.25;;
75603;SDS011;64187;51.010;13.792;2023-06-26T23:14:36;23.35;;;17.10;;
75603;SDS011;64187;51.010;13.792;2023-06-26T23:19:37;19.52;;;15.50;;
75603;SDS011;64187;51.010;13.792;2023-06-26T23:24:37;19.48;;;12.40;;
75603;SDS011;64187;51.010;13.792;2023-06-26T23:29:39;15.65;;;11.35;;
75603;SDS011;64187;51.010;13.792;2023-06-26T23:34:40;17.08;;;11.57;;
75603;SDS011;64187;51.010;13.792;2023-06-26T23:39:40;12.35;;;6.85;;
75603;SDS011;64187;51.010;13.792;2023-06-26T23:44:41;8.23;;;6.43;;
75603;SDS011;64187;51.010;13.792;2023-06-26T23:49:39;4.75;;;4.13;;
75603;SDS011;64187;51.010;13.792;2023-06-26T23:54:38;6.40;;;3.83;;
75603;SDS011;64187;51.010;13.792;2023-06-26T23:59:38;5.70;;;3.88;;
